Terminal Aerodrome Forecast
Issued by NWS Albany, NY

Current Version | Previous Version | Text Only | Print | Product List | Glossary On
Versions: 1 2 3 4 5 6 7 8 9 10 11 12 13 14 15 16
000
FTUS41 KALY 241733
TAFALB
TAF
KALB 241733Z 2418/2518 18012KT P6SM FEW020 SCT070 BKN100
     FM250300 17010KT 4SM BR BKN015
     FM250600 17009KT 2SM BR OVC008
     FM251500 17013G22KT 5SM BR SCT015 OVC025=

USA.gov is the U.S. government's official web portal to all federal, state and local government web resources and services.